createdAt,value
2022-11-17T00:01:18.426Z,8.50
2022-11-17T00:04:06.705Z,8.60
2022-11-17T00:06:53.353Z,8.60
2022-11-17T00:09:41.708Z,8.50
2022-11-17T00:12:46.678Z,8.50
2022-11-17T00:15:34.671Z,8.50
2022-11-17T00:18:40.044Z,8.50
2022-11-17T00:21:30.683Z,8.40
2022-11-17T00:24:17.297Z,8.40
2022-11-17T00:27:05.670Z,8.40
2022-11-17T00:29:52.401Z,8.50
2022-11-17T00:33:18.686Z,8.40
2022-11-17T00:36:05.506Z,8.50
2022-11-17T00:38:53.718Z,8.50
2022-11-17T00:41:40.402Z,8.50
2022-11-17T00:44:28.668Z,8.70
2022-11-17T00:47:15.266Z,8.70
2022-11-17T00:50:03.693Z,8.80
2022-11-17T00:52:50.373Z,8.90
2022-11-17T00:55:38.713Z,8.90
2022-11-17T00:58:25.386Z,8.80
2022-11-17T01:01:13.793Z,8.70
2022-11-17T01:04:04.031Z,8.50
2022-11-17T01:06:52.731Z,8.30
2022-11-17T01:09:39.401Z,8.20
2022-11-17T01:12:27.712Z,8.20
2022-11-17T01:15:14.359Z,8.20
2022-11-17T01:18:02.657Z,8.20
2022-11-17T01:20:49.306Z,8.20
2022-11-17T01:23:38.678Z,8.20
2022-11-17T01:26:27.144Z,8.20
2022-11-17T01:29:16.659Z,8.30
2022-11-17T01:32:03.294Z,8.10
2022-11-17T01:34:51.688Z,8.00
2022-11-17T01:37:38.308Z,8.00
2022-11-17T01:40:26.673Z,7.90
2022-11-17T01:43:13.301Z,7.80
2022-11-17T01:46:01.673Z,7.80
2022-11-17T01:48:50.190Z,7.80
2022-11-17T01:51:39.657Z,7.70
2022-11-17T01:54:27.196Z,7.70
2022-11-17T01:57:19.666Z,7.70
2022-11-17T02:00:08.041Z,8.20
2022-11-17T02:02:56.660Z,7.80
2022-11-17T02:05:51.762Z,7.70
2022-11-17T02:08:41.674Z,7.80
2022-11-17T02:11:35.932Z,7.90
2022-11-17T02:14:23.653Z,8.00
2022-11-17T02:17:14.274Z,8.20
2022-11-17T02:20:10.692Z,8.30
2022-11-17T02:23:16.005Z,8.30
2022-11-17T02:26:24.653Z,8.40
2022-11-17T02:29:30.040Z,8.40
2022-11-17T02:32:20.647Z,8.40
2022-11-17T02:35:07.259Z,8.40
2022-11-17T02:38:15.635Z,8.30
2022-11-17T02:41:02.248Z,8.30
2022-11-17T02:44:06.639Z,8.10
2022-11-17T02:47:00.817Z,8.00
2022-11-17T02:49:55.642Z,7.90
2022-11-17T02:52:42.352Z,7.80
2022-11-17T02:55:34.852Z,7.80
2022-11-17T02:58:21.709Z,7.70
2022-11-17T03:01:09.682Z,7.70
2022-11-17T03:04:15.205Z,7.70
2022-11-17T03:07:22.748Z,7.80
2022-11-17T03:10:12.577Z,7.80
2022-11-17T03:13:18.630Z,7.80
2022-11-17T03:16:24.093Z,7.80
2022-11-17T03:19:12.680Z,7.90
2022-11-17T03:22:05.017Z,7.80
2022-11-17T03:24:55.621Z,7.70
2022-11-17T03:27:44.661Z,7.70
2022-11-17T03:30:37.481Z,7.80
2022-11-17T03:33:25.624Z,8.20
2022-11-17T03:36:18.616Z,7.70
2022-11-17T03:39:18.041Z,7.80
2022-11-17T03:42:22.638Z,7.80
2022-11-17T03:45:14.424Z,7.80
2022-11-17T03:48:21.641Z,7.80
2022-11-17T03:51:11.217Z,7.80
2022-11-17T03:53:59.610Z,7.80
2022-11-17T03:57:01.959Z,7.80
2022-11-17T03:59:54.633Z,7.90
2022-11-17T04:02:42.045Z,7.80
2022-11-17T04:05:30.634Z,7.80
2022-11-17T04:08:17.314Z,7.80
2022-11-17T04:11:24.625Z,7.90
2022-11-17T04:14:29.761Z,7.90
2022-11-17T04:17:17.608Z,7.90
2022-11-17T04:20:04.446Z,7.90
2022-11-17T04:23:08.584Z,7.80
2022-11-17T04:26:14.556Z,7.90
2022-11-17T04:29:02.585Z,7.90
2022-11-17T04:31:49.261Z,7.80
2022-11-17T04:34:37.593Z,7.90
2022-11-17T04:37:24.171Z,8.20
2022-11-17T04:40:12.589Z,7.90
2022-11-17T04:42:59.214Z,7.80
2022-11-17T04:45:47.631Z,7.90
2022-11-17T04:48:34.262Z,7.90
2022-11-17T04:51:22.593Z,7.80
2022-11-17T04:54:10.396Z,7.80
2022-11-17T04:56:58.608Z,8.00
2022-11-17T04:59:45.239Z,8.00
2022-11-17T05:02:33.631Z,8.10
2022-11-17T05:05:20.256Z,8.20
2022-11-17T05:08:08.576Z,8.20
2022-11-17T05:11:16.021Z,8.30
2022-11-17T05:14:04.596Z,8.30
2022-11-17T05:17:11.191Z,8.30
2022-11-17T05:19:59.630Z,8.30
2022-11-17T05:23:07.005Z,8.40
2022-11-17T05:25:55.610Z,8.60
2022-11-17T05:28:42.321Z,8.60
2022-11-17T05:31:30.657Z,8.70
2022-11-17T05:34:17.746Z,8.80
2022-11-17T05:37:05.591Z,8.90
2022-11-17T05:39:52.197Z,9.00
2022-11-17T05:42:40.631Z,9.10
2022-11-17T05:45:27.244Z,9.20
2022-11-17T05:48:15.608Z,9.30
2022-11-17T05:51:02.270Z,9.30
2022-11-17T05:53:50.570Z,9.30
2022-11-17T05:56:43.215Z,9.30
2022-11-17T05:59:34.574Z,9.40
2022-11-17T06:02:23.749Z,9.40
2022-11-17T06:05:17.053Z,9.40
2022-11-17T06:08:06.859Z,9.40
2022-11-17T06:10:54.570Z,9.50
2022-11-17T06:13:41.187Z,9.60
2022-11-17T06:16:31.602Z,9.70
2022-11-17T06:19:23.836Z,9.80
2022-11-17T06:22:13.932Z,9.80
2022-11-17T06:25:01.895Z,9.80
2022-11-17T06:27:50.576Z,9.70
2022-11-17T06:30:37.727Z,9.60
2022-11-17T06:33:27.542Z,9.60
2022-11-17T06:36:14.300Z,9.70
2022-11-17T06:39:02.550Z,9.60
2022-11-17T06:41:49.165Z,9.60
2022-11-17T06:44:37.542Z,9.60
2022-11-17T06:47:24.193Z,9.60
2022-11-17T06:50:12.564Z,9.70
2022-11-17T06:53:03.464Z,9.60
2022-11-17T06:55:55.674Z,9.50
2022-11-17T06:58:42.404Z,9.40
2022-11-17T07:01:30.656Z,9.30
2022-11-17T07:04:17.378Z,9.20
2022-11-17T07:07:05.691Z,9.20
2022-11-17T07:09:52.364Z,9.10
2022-11-17T07:12:40.633Z,9.10
2022-11-17T07:15:27.407Z,9.10
2022-11-17T07:18:15.576Z,9.10
2022-11-17T07:21:03.973Z,9.20
2022-11-17T07:23:52.596Z,9.30
2022-11-17T07:26:39.246Z,9.30
2022-11-17T07:29:27.627Z,9.30
2022-11-17T07:32:14.289Z,9.40
2022-11-17T07:35:03.613Z,9.50
2022-11-17T07:37:56.719Z,9.60
2022-11-17T07:40:44.627Z,9.70
2022-11-17T07:43:31.372Z,9.80
2022-11-17T07:46:19.596Z,9.80
2022-11-17T07:49:06.300Z,9.90
2022-11-17T07:51:54.600Z,9.90
2022-11-17T07:54:41.385Z,9.90
2022-11-17T07:57:30.598Z,9.90
2022-11-17T08:00:17.430Z,9.90
2022-11-17T08:03:07.620Z,9.80
2022-11-17T08:05:54.326Z,9.80
2022-11-17T08:08:42.654Z,9.80
2022-11-17T08:11:29.379Z,9.80
2022-11-17T08:14:17.604Z,9.80
2022-11-17T08:17:04.311Z,9.70
2022-11-17T08:19:52.632Z,9.70
2022-11-17T08:22:39.235Z,9.70
2022-11-17T08:25:28.651Z,9.70
2022-11-17T08:28:15.301Z,9.70
2022-11-17T08:31:04.569Z,9.70
2022-11-17T08:33:51.238Z,9.60
2022-11-17T08:36:39.598Z,9.60
2022-11-17T08:39:26.253Z,9.60
2022-11-17T08:42:14.556Z,9.60
2022-11-17T08:45:01.187Z,9.60
2022-11-17T08:47:49.599Z,9.60
2022-11-17T08:50:36.342Z,9.60
2022-11-17T08:53:26.564Z,9.50
2022-11-17T08:56:14.534Z,9.50
2022-11-17T08:59:03.610Z,9.50
2022-11-17T09:01:50.260Z,9.40
2022-11-17T09:04:38.572Z,9.40
2022-11-17T09:07:27.487Z,9.40
2022-11-17T09:10:17.360Z,9.40
2022-11-17T09:13:04.047Z,9.30
2022-11-17T09:15:50.710Z,9.20
2022-11-17T09:18:38.384Z,9.10
2022-11-17T09:21:26.507Z,9.00
2022-11-17T09:24:13.257Z,8.90
2022-11-17T09:27:02.313Z,9.00
2022-11-17T09:29:49.038Z,8.90
2022-11-17T09:32:35.863Z,8.90
2022-11-17T09:35:22.855Z,8.90
2022-11-17T09:38:09.537Z,9.10
2022-11-17T09:40:58.441Z,9.50
2022-11-17T09:44:05.414Z,10.50
2022-11-17T09:46:56.240Z,13.30
2022-11-17T09:50:01.584Z,16.80
2022-11-17T09:52:48.215Z,18.10
2022-11-17T09:56:01.495Z,17.40
2022-11-17T09:58:50.979Z,17.50
2022-11-17T10:01:38.047Z,17.60
2022-11-17T10:04:28.191Z,16.90
2022-11-17T10:07:14.900Z,15.70
2022-11-17T10:10:02.981Z,15.40
2022-11-17T10:12:53.293Z,15.40
2022-11-17T10:15:48.049Z,15.40
2022-11-17T10:18:38.132Z,16.00
2022-11-17T10:21:28.555Z,16.50
2022-11-17T10:24:34.180Z,16.80
2022-11-17T10:27:22.755Z,18.60
2022-11-17T10:30:25.027Z,20.30
2022-11-17T10:33:13.003Z,20.80
2022-11-17T10:35:59.818Z,22.10
2022-11-17T10:38:47.735Z,23.70
2022-11-17T10:41:42.712Z,22.80
2022-11-17T10:44:31.534Z,21.60
2022-11-17T10:47:47.734Z,20.60
2022-11-17T10:50:34.498Z,21.10
2022-11-17T10:53:26.202Z,21.00
2022-11-17T10:56:14.617Z,20.50
2022-11-17T10:59:13.670Z,19.60
2022-11-17T11:02:20.272Z,19.10
2022-11-17T11:05:10.373Z,18.50
2022-11-17T11:08:21.247Z,17.80
2022-11-17T11:11:12.798Z,17.20
2022-11-17T11:14:01.554Z,17.10
2022-11-17T11:16:50.295Z,17.80
2022-11-17T11:19:36.904Z,18.40
2022-11-17T11:22:23.660Z,19.10
2022-11-17T11:25:13.671Z,19.50
2022-11-17T11:28:05.340Z,20.10
2022-11-17T11:31:00.625Z,19.60
2022-11-17T11:33:53.792Z,20.20
2022-11-17T11:36:53.752Z,21.20
2022-11-17T11:39:40.660Z,22.10
2022-11-17T11:42:30.441Z,23.90
2022-11-17T11:45:17.236Z,26.50
2022-11-17T11:48:22.458Z,28.40
2022-11-17T11:51:17.578Z,28.60
2022-11-17T11:54:09.742Z,27.90
2022-11-17T11:56:57.422Z,27.10
2022-11-17T11:59:48.208Z,25.90
2022-11-17T12:02:41.483Z,24.80
2022-11-17T12:05:28.154Z,23.30
2022-11-17T12:08:24.188Z,22.10
2022-11-17T12:11:34.637Z,21.70
2022-11-17T12:14:21.340Z,21.70
2022-11-17T12:17:13.949Z,24.20
2022-11-17T12:20:07.481Z,28.30
2022-11-17T12:23:20.577Z,32.20
2022-11-17T12:26:07.435Z,34.20
2022-11-17T12:29:12.679Z,33.20
2022-11-17T12:32:00.549Z,32.80
2022-11-17T12:35:07.115Z,32.80
2022-11-17T12:38:12.698Z,32.00
2022-11-17T12:40:59.367Z,31.10
2022-11-17T12:43:46.006Z,29.00
2022-11-17T12:46:33.244Z,26.90
2022-11-17T12:49:27.189Z,25.10
2022-11-17T12:52:17.303Z,23.90
2022-11-17T12:55:15.313Z,23.10
2022-11-17T12:58:19.499Z,22.50
2022-11-17T13:01:16.469Z,22.10
2022-11-17T13:04:09.301Z,21.30
2022-11-17T13:07:06.392Z,20.80
2022-11-17T13:09:54.340Z,21.30
2022-11-17T13:12:41.089Z,21.50
2022-11-17T13:15:27.839Z,21.20
2022-11-17T13:18:17.810Z,20.60
2022-11-17T13:21:05.360Z,19.90
2022-11-17T13:23:53.024Z,18.70
2022-11-17T13:26:39.647Z,17.80
2022-11-17T13:29:26.382Z,17.20
2022-11-17T13:32:20.960Z,16.50
2022-11-17T13:35:27.913Z,16.00
2022-11-17T13:38:14.604Z,15.80
2022-11-17T13:41:02.001Z,15.40
2022-11-17T13:43:50.442Z,15.20
2022-11-17T13:46:38.781Z,14.90
2022-11-17T13:49:43.579Z,14.80
2022-11-17T13:52:45.511Z,14.60
2022-11-17T13:55:33.960Z,14.40
2022-11-17T13:58:26.228Z,14.30
2022-11-17T14:01:14.007Z,14.10
2022-11-17T14:04:21.530Z,14.00
2022-11-17T14:07:10.006Z,13.90
2022-11-17T14:10:27.972Z,13.60
2022-11-17T14:13:19.847Z,13.50
2022-11-17T14:16:19.380Z,13.50
2022-11-17T14:19:24.214Z,13.50
2022-11-17T14:22:14.358Z,13.40
2022-11-17T14:25:06.545Z,13.50
2022-11-17T14:27:53.459Z,13.50
2022-11-17T14:30:40.222Z,13.40
2022-11-17T14:33:26.968Z,13.30
2022-11-17T14:36:15.338Z,13.20
2022-11-17T14:39:03.121Z,13.20
2022-11-17T14:41:50.437Z,13.00
2022-11-17T14:44:37.209Z,12.80
2022-11-17T14:47:23.990Z,12.70
2022-11-17T14:50:14.972Z,12.60
2022-11-17T14:53:01.645Z,12.50
2022-11-17T14:55:48.459Z,12.40
2022-11-17T14:58:35.732Z,12.30
2022-11-17T15:01:28.930Z,12.30
2022-11-17T15:04:48.932Z,12.20
2022-11-17T15:07:26.087Z,12.10
2022-11-17T15:10:12.804Z,12.10
2022-11-17T15:12:59.568Z,12.00
2022-11-17T15:15:46.277Z,12.00
2022-11-17T15:18:33.024Z,11.90
2022-11-17T15:21:19.725Z,11.80
2022-11-17T15:24:06.624Z,11.80
2022-11-17T15:26:53.396Z,11.80
2022-11-17T15:29:40.289Z,11.70
2022-11-17T15:32:26.987Z,11.70
2022-11-17T15:35:13.837Z,11.60
2022-11-17T15:38:00.584Z,11.60
2022-11-17T15:40:52.856Z,11.50
2022-11-17T15:43:40.480Z,11.50
2022-11-17T15:46:27.296Z,11.40
2022-11-17T15:49:14.264Z,11.40
2022-11-17T15:52:01.240Z,11.30
2022-11-17T15:54:47.955Z,11.30
2022-11-17T15:57:34.715Z,11.20
2022-11-17T16:00:21.437Z,11.10
2022-11-17T16:03:08.129Z,11.00
2022-11-17T16:05:54.748Z,10.90
2022-11-17T16:08:42.028Z,10.80
2022-11-17T16:11:29.020Z,10.70
2022-11-17T16:14:15.789Z,10.80
2022-11-17T16:17:02.533Z,10.70
2022-11-17T16:19:49.288Z,10.70
2022-11-17T16:22:35.965Z,10.70
2022-11-17T16:25:22.684Z,10.60
2022-11-17T16:28:09.884Z,10.50
2022-11-17T16:30:56.626Z,10.40
2022-11-17T16:33:47.364Z,10.30
2022-11-17T16:36:36.778Z,10.30
2022-11-17T16:39:23.819Z,10.10
2022-11-17T16:42:10.493Z,10.00
2022-11-17T16:44:57.231Z,9.90
2022-11-17T16:47:43.984Z,9.80
2022-11-17T16:50:30.621Z,9.80
2022-11-17T16:53:17.328Z,9.80
2022-11-17T16:56:05.070Z,9.80
2022-11-17T16:58:52.208Z,9.70
2022-11-17T17:01:38.978Z,9.70
2022-11-17T17:04:28.844Z,9.70
2022-11-17T17:07:15.608Z,9.60
2022-11-17T17:10:03.444Z,9.70
2022-11-17T17:12:50.110Z,9.80
2022-11-17T17:15:38.399Z,10.00
2022-11-17T17:18:25.081Z,10.00
2022-11-17T17:21:14.426Z,10.10
2022-11-17T17:24:01.296Z,10.20
2022-11-17T17:26:49.445Z,10.30
2022-11-17T17:29:36.116Z,10.50
2022-11-17T17:32:24.479Z,10.60
2022-11-17T17:35:11.178Z,10.60
2022-11-17T17:37:59.482Z,10.70
2022-11-17T17:40:46.187Z,10.70
2022-11-17T17:43:34.477Z,10.70
2022-11-17T17:47:06.326Z,10.70
2022-11-17T17:49:54.472Z,10.70
2022-11-17T17:52:41.162Z,10.60
2022-11-17T17:55:29.407Z,10.40
2022-11-17T17:58:16.040Z,10.20
2022-11-17T18:01:08.821Z,10.10
2022-11-17T18:04:01.250Z,10.00
2022-11-17T18:06:49.156Z,9.90
2022-11-17T18:09:35.861Z,9.70
2022-11-17T18:12:22.565Z,9.60
2022-11-17T18:15:10.260Z,9.40
2022-11-17T18:17:57.032Z,9.30
2022-11-17T18:20:43.695Z,9.30
2022-11-17T18:23:30.723Z,9.30
2022-11-17T18:26:19.630Z,9.30
2022-11-17T18:29:12.637Z,9.20
2022-11-17T18:31:59.337Z,9.20
2022-11-17T18:34:46.152Z,9.20
2022-11-17T18:37:33.250Z,9.20
2022-11-17T18:40:19.956Z,9.30
2022-11-17T18:43:06.682Z,9.20
2022-11-17T18:45:53.344Z,9.20
2022-11-17T18:48:41.011Z,9.20
2022-11-17T18:51:29.003Z,9.20
2022-11-17T18:54:15.728Z,9.10
2022-11-17T18:57:02.393Z,8.90
2022-11-17T18:59:49.046Z,8.80
2022-11-17T19:02:35.787Z,8.60
2022-11-17T19:05:22.411Z,8.60
2022-11-17T19:08:09.144Z,8.50
2022-11-17T19:10:55.961Z,8.50
2022-11-17T19:13:42.967Z,8.50
2022-11-17T19:16:30.273Z,8.60
2022-11-17T19:19:17.180Z,8.60
2022-11-17T19:22:04.508Z,8.70
2022-11-17T19:24:51.260Z,8.70
2022-11-17T19:27:37.901Z,8.70
2022-11-17T19:30:24.941Z,8.60
2022-11-17T19:33:12.646Z,8.50
2022-11-17T19:36:03.682Z,8.40
2022-11-17T19:38:51.316Z,8.40
2022-11-17T19:41:39.718Z,8.50
2022-11-17T19:44:27.886Z,8.50
2022-11-17T19:47:14.729Z,8.60
2022-11-17T19:50:01.435Z,8.60
2022-11-17T19:52:49.397Z,8.70
2022-11-17T19:55:36.275Z,8.70
2022-11-17T19:58:24.365Z,8.80
2022-11-17T20:01:18.522Z,8.90
2022-11-17T20:04:06.429Z,8.90
2022-11-17T20:06:53.219Z,8.90
2022-11-17T20:09:41.384Z,8.90
2022-11-17T20:12:28.017Z,8.90
2022-11-17T20:15:33.193Z,8.80
2022-11-17T20:18:20.456Z,8.60
2022-11-17T20:21:09.385Z,8.40
2022-11-17T20:23:56.413Z,8.30
2022-11-17T20:26:45.363Z,8.20
2022-11-17T20:29:32.044Z,8.20
2022-11-17T20:32:20.375Z,8.10
2022-11-17T20:35:07.249Z,8.20
2022-11-17T20:37:55.378Z,8.20
2022-11-17T20:40:42.019Z,8.30
2022-11-17T20:43:31.373Z,8.50
2022-11-17T20:46:18.085Z,8.30
2022-11-17T20:49:06.347Z,8.20
2022-11-17T20:51:52.984Z,8.20
2022-11-17T20:54:41.344Z,8.30
2022-11-17T20:57:29.269Z,8.20
2022-11-17T21:00:17.374Z,8.20
2022-11-17T21:03:04.329Z,8.30
2022-11-17T21:05:58.827Z,8.30
2022-11-17T21:08:46.478Z,8.20
2022-11-17T21:11:53.387Z,8.10
2022-11-17T21:14:40.090Z,8.20
2022-11-17T21:17:47.406Z,8.30
2022-11-17T21:20:34.105Z,8.40
2022-11-17T21:23:20.748Z,8.30
2022-11-17T21:26:16.943Z,8.30
2022-11-17T21:29:06.669Z,8.20
2022-11-17T21:31:53.538Z,8.20
2022-11-17T21:34:40.250Z,8.20
2022-11-17T21:37:27.989Z,8.10
2022-11-17T21:40:14.651Z,8.00
2022-11-17T21:43:01.307Z,8.10
2022-11-17T21:45:48.063Z,8.10
2022-11-17T21:48:35.354Z,8.20
2022-11-17T21:51:23.543Z,8.20
2022-11-17T21:54:10.236Z,8.20
2022-11-17T21:56:56.931Z,8.30
2022-11-17T21:59:43.593Z,8.40
2022-11-17T22:02:30.358Z,8.40
2022-11-17T22:05:16.954Z,8.60
2022-11-17T22:08:03.823Z,8.50
2022-11-17T22:10:50.500Z,8.60
2022-11-17T22:13:37.448Z,8.60
2022-11-17T22:16:24.127Z,8.50
2022-11-17T22:19:12.019Z,8.50
2022-11-17T22:21:58.660Z,8.50
2022-11-17T22:24:49.578Z,8.50
2022-11-17T22:27:36.758Z,8.50
2022-11-17T22:30:23.419Z,8.60
2022-11-17T22:33:10.450Z,8.60
2022-11-17T22:36:00.644Z,8.50
2022-11-17T22:38:49.921Z,8.40
2022-11-17T22:41:36.636Z,8.40
2022-11-17T22:44:23.292Z,8.60
2022-11-17T22:47:09.995Z,8.30
2022-11-17T22:49:56.667Z,8.40
2022-11-17T22:52:43.282Z,8.40
2022-11-17T22:55:30.112Z,8.50
2022-11-17T22:58:17.109Z,8.50
2022-11-17T23:01:07.159Z,8.50
2022-11-17T23:03:53.909Z,8.30
2022-11-17T23:06:40.603Z,8.30
2022-11-17T23:09:27.297Z,8.20
2022-11-17T23:12:14.545Z,8.20
2022-11-17T23:15:01.352Z,8.30
2022-11-17T23:17:50.956Z,8.30
2022-11-17T23:20:37.756Z,8.30
2022-11-17T23:23:24.512Z,8.40
2022-11-17T23:26:11.856Z,8.40
2022-11-17T23:28:58.667Z,8.30
2022-11-17T23:31:45.351Z,8.30
2022-11-17T23:34:31.977Z,8.40
2022-11-17T23:37:19.481Z,8.40
2022-11-17T23:40:06.370Z,8.40
2022-11-17T23:42:53.592Z,8.50
2022-11-17T23:45:40.353Z,8.40
2022-11-17T23:48:27.000Z,8.40
2022-11-17T23:51:14.644Z,8.30
2022-11-17T23:54:01.625Z,8.30
2022-11-17T23:56:52.939Z,8.10
2022-11-17T23:59:39.643Z,8.10
